Time;durP1;ratioP1;P1;durP2;ratioP2;P2;SDS_P1;SDS_P2;PMS_P1;PMS_P2;Temp;Humidity;BMP_temperature;BMP_pressure;BME280_temperature;BME280_humidity;BME280_pressure;Samples;Min_cycle;Max_cycle;Signal;HPM_P1;HPM_P2
2022/01/03 00:00:32;;;;;;;9.07;1.10;;;8.40;99.90;;;;;;6101067;23;20026;-85
2022/01/03 00:03:02;;;;;;;9.57;1.23;;;8.40;99.90;;;;;;6127411;23;20018;-86
2022/01/03 00:05:28;;;;;;;10.68;1.35;;;8.40;99.90;;;;;;6101166;23;20033;-85
2022/01/03 00:07:54;;;;;;;12.43;1.48;;;8.40;99.90;;;;;;6101887;23;20029;-85
2022/01/03 00:10:20;;;;;;;11.90;2.10;;;8.40;99.90;;;;;;6099570;23;20018;-86
2022/01/03 00:12:47;;;;;;;13.38;1.30;;;8.50;99.90;;;;;;6127827;23;20014;-87
2022/01/03 00:15:15;;;;;;;9.15;1.50;;;8.50;99.90;;;;;;6078103;23;20448;-87
2022/01/03 00:17:42;;;;;;;11.85;1.40;;;8.50;99.90;;;;;;6102041;23;20022;-89
2022/01/03 00:20:09;;;;;;;14.52;2.00;;;8.50;99.90;;;;;;6077755;23;20010;-87
2022/01/03 00:22:44;;;;;;;11.02;1.90;;;8.60;99.90;;;;;;6127400;23;20014;-87
2022/01/03 00:25:20;;;;;;;12.25;2.08;;;8.60;99.90;;;;;;6077589;23;20022;-86
2022/01/03 00:28:12;;;;;;;14.93;2.20;;;8.70;99.90;;;;;;6101502;23;20014;-91
2022/01/03 00:30:38;;;;;;;12.65;2.00;;;8.70;99.90;;;;;;6086100;23;20097;-87
2022/01/03 00:33:04;;;;;;;9.20;1.83;;;8.80;99.90;;;;;;6127153;23;20113;-88
2022/01/03 00:35:34;;;;;;;15.93;2.10;;;8.80;99.90;;;;;;6101535;23;20254;-87
2022/01/03 00:38:00;;;;;;;9.35;2.22;;;8.90;99.90;;;;;;6127249;23;20017;-87
2022/01/03 00:40:26;;;;;;;;;;;8.90;99.90;;;;;;6077747;23;20452;-86
2022/01/03 00:42:52;;;;;;;13.68;1.80;;;8.90;99.90;;;;;;6127149;23;19944;-87
2022/01/03 00:45:18;;;;;;;18.33;2.55;;;8.90;99.90;;;;;;6100972;23;20061;-87
2022/01/03 00:47:47;;;;;;;18.30;2.33;;;8.90;99.90;;;;;;6101412;23;20050;-89
2022/01/03 00:50:19;;;;;;;16.52;2.10;;;9.00;99.90;;;;;;6127296;23;20092;-86
2022/01/03 00:52:45;;;;;;;16.13;2.42;;;9.00;99.90;;;;;;6101466;23;20057;-87
2022/01/03 00:55:12;;;;;;;15.32;2.38;;;9.00;99.90;;;;;;6101400;23;20053;-87
2022/01/03 00:57:47;;;;;;;;;;;9.10;99.90;;;;;;6078186;23;20010;-85
2022/01/03 01:00:13;;;;;;;18.90;2.75;;;9.10;99.90;;;;;;6127064;23;20298;-87
2022/01/03 01:02:50;;;;;;;17.63;2.47;;;9.10;99.90;;;;;;6077340;23;20351;-86
2022/01/03 01:05:17;;;;;;;16.42;2.33;;;9.10;99.90;;;;;;6127146;23;20014;-85
2022/01/03 01:07:46;;;;;;;14.40;2.70;;;9.10;99.90;;;;;;6126891;23;20080;-85
2022/01/03 01:10:12;;;;;;;13.95;2.58;;;9.20;99.90;;;;;;6100822;23;20348;-86
2022/01/03 01:12:40;;;;;;;16.88;2.72;;;9.10;99.90;;;;;;6126932;23;20026;-86
2022/01/03 01:15:07;;;;;;;16.60;2.45;;;9.10;99.90;;;;;;6101552;23;20020;-93
2022/01/03 01:17:33;;;;;;;21.98;4.10;;;9.10;99.90;;;;;;6127356;23;20024;-90
2022/01/03 01:19:59;;;;;;;17.58;2.90;;;9.10;99.90;;;;;;6102359;23;20497;-88
2022/01/03 01:22:25;;;;;;;21.02;2.67;;;9.20;99.90;;;;;;6127292;23;20026;-88
2022/01/03 01:27:46;;;;;;;17.60;2.78;;;9.20;99.90;;;;;;6126010;23;20018;-88
2022/01/03 01:27:50;;;;;;;21.42;3.22;;;9.10;99.90;;;;;;6120998;23;20053;-92
2022/01/03 01:30:22;;;;;;;21.85;3.15;;;9.10;99.90;;;;;;6101127;23;20463;-88
2022/01/03 01:33:03;;;;;;;22.48;2.65;;;9.10;99.90;;;;;;6101408;23;20014;-90
2022/01/03 01:35:41;;;;;;;25.23;2.60;;;9.20;99.90;;;;;;6126911;23;20026;-88
2022/01/03 01:38:09;;;;;;;22.98;3.28;;;9.10;99.90;;;;;;6101559;23;20013;-88
2022/01/03 01:40:41;;;;;;;21.13;3.08;;;9.10;99.90;;;;;;6127169;23;20526;-86
2022/01/03 01:43:09;;;;;;;23.35;4.05;;;9.20;99.90;;;;;;6100757;23;20022;-88
2022/01/03 01:45:35;;;;;;;21.13;3.08;;;9.20;99.90;;;;;;6101852;23;20014;-90
2022/01/03 01:48:02;;;;;;;20.70;3.53;;;9.20;99.90;;;;;;6101227;23;20025;-87
2022/01/03 01:50:28;;;;;;;;;;;9.20;99.90;;;;;;6127356;23;20022;-87
2022/01/03 01:52:56;;;;;;;20.45;2.85;;;9.20;99.90;;;;;;6126649;23;19955;-86
2022/01/03 01:55:22;;;;;;;25.02;3.38;;;9.20;99.90;;;;;;6126694;23;20025;-87
2022/01/03 01:58:26;;;;;;;17.10;2.90;;;9.10;99.90;;;;;;6126930;23;20022;-86
2022/01/03 02:06:21;;;;;;;17.77;2.78;;;9.20;99.90;;;;;;6127138;23;20359;-90
2022/01/03 02:09:06;;;;;;;22.30;3.25;;;9.20;99.90;;;;;;6125924;23;20021;-87
2022/01/03 02:11:55;;;;;;;22.73;3.00;;;9.20;99.90;;;;;;6126602;23;20022;-85
2022/01/03 02:14:22;;;;;;;24.50;3.17;;;9.20;99.90;;;;;;6125085;23;20024;-86
2022/01/03 02:16:49;;;;;;;19.75;2.80;;;9.30;99.90;;;;;;6126494;23;20026;-88
2022/01/03 02:19:30;;;;;;;25.58;4.07;;;9.30;99.90;;;;;;6125735;23;20022;-87
2022/01/03 02:21:56;;;;;;;26.10;3.42;;;9.30;99.90;;;;;;6124478;23;20105;-86
2022/01/03 02:24:21;;;;;;;18.87;3.23;;;9.30;99.90;;;;;;6100498;23;20053;-87
2022/01/03 02:26:47;;;;;;;17.13;2.80;;;9.30;99.90;;;;;;6100261;23;20072;-86
2022/01/03 02:29:13;;;;;;;24.50;3.53;;;9.40;99.90;;;;;;6100471;23;20101;-86
2022/01/03 02:31:38;;;;;;;20.30;3.03;;;9.40;99.90;;;;;;6100070;23;20014;-86
2022/01/03 02:34:04;;;;;;;23.40;3.80;;;9.40;99.90;;;;;;6100244;23;20061;-87
2022/01/03 02:36:31;;;;;;;25.65;3.63;;;9.40;99.90;;;;;;6124949;23;20022;-88
2022/01/03 02:38:57;;;;;;;;;;;9.40;99.90;;;;;;6100869;23;20017;-87
2022/01/03 02:41:23;;;;;;;22.73;3.25;;;9.40;99.90;;;;;;6125182;23;19924;-87
2022/01/03 02:43:52;;;;;;;26.20;4.03;;;9.40;99.90;;;;;;6125046;23;20026;-89
2022/01/03 02:46:18;;;;;;;25.33;3.45;;;9.40;99.90;;;;;;6125665;23;20013;-90
2022/01/03 02:48:44;;;;;;;23.45;3.65;;;9.40;99.90;;;;;;6125187;23;20017;-86
2022/01/03 02:51:13;;;;;;;18.83;3.33;;;9.40;99.90;;;;;;6100687;23;20125;-87
2022/01/03 02:53:39;;;;;;;21.77;3.78;;;9.40;99.90;;;;;;6124922;23;20317;-86
2022/01/03 02:56:05;;;;;;;24.33;3.07;;;9.50;99.90;;;;;;6125011;23;20022;-87
2022/01/03 02:58:31;;;;;;;21.63;3.20;;;9.40;99.90;;;;;;6124880;23;20025;-87
2022/01/03 03:00:57;;;;;;;28.27;4.30;;;9.40;99.90;;;;;;6100358;23;20329;-86
2022/01/03 03:03:23;;;;;;;20.58;3.63;;;9.40;99.90;;;;;;6124537;23;20021;-87
2022/01/03 03:05:50;;;;;;;22.10;4.43;;;9.40;99.90;;;;;;6124410;23;20463;-86
2022/01/03 03:08:16;;;;;;;22.92;3.40;;;9.40;99.90;;;;;;6124756;23;20037;-87
2022/01/03 03:10:42;;;;;;;35.42;4.68;;;9.40;99.90;;;;;;6124704;23;20387;-87
2022/01/03 03:13:08;;;;;;;21.30;3.60;;;9.40;99.90;;;;;;6100427;23;20050;-88
2022/01/03 03:15:35;;;;;;;29.00;4.37;;;9.40;99.90;;;;;;6124529;23;20018;-86
2022/01/03 03:18:01;;;;;;;26.90;3.83;;;9.40;99.90;;;;;;6100148;23;20719;-86
2022/01/03 03:20:30;;;;;;;22.65;3.83;;;9.30;99.90;;;;;;6124709;23;20391;-87
2022/01/03 03:22:57;;;;;;;29.98;5.03;;;9.30;99.90;;;;;;6124478;23;20026;-87
2022/01/03 03:25:28;;;;;;;26.77;4.65;;;9.30;99.90;;;;;;6124347;23;20460;-86
2022/01/03 03:28:00;;;;;;;24.67;4.03;;;9.30;99.90;;;;;;6126102;23;20017;-86
2022/01/03 03:30:28;;;;;;;26.38;4.43;;;9.30;99.90;;;;;;6100444;23;20018;-86
2022/01/03 03:33:00;;;;;;;22.02;4.40;;;9.30;99.90;;;;;;6124599;23;20097;-86
2022/01/03 03:35:26;;;;;;;23.80;4.00;;;9.30;99.90;;;;;;6124839;23;20021;-86
2022/01/03 03:37:52;;;;;;;21.05;3.60;;;9.30;99.90;;;;;;6124572;23;20024;-87
2022/01/03 03:40:18;;;;;;;24.73;4.60;;;9.20;99.90;;;;;;6124692;23;20412;-86
2022/01/03 03:42:44;;;;;;;29.10;3.65;;;9.30;99.90;;;;;;6124175;23;20026;-87
2022/01/03 03:45:11;;;;;;;31.40;4.68;;;9.20;99.90;;;;;;6125325;23;20018;-84
2022/01/03 03:47:37;;;;;;;29.23;3.67;;;9.20;99.90;;;;;;6126031;23;20017;-88
2022/01/03 03:50:04;;;;;;;22.53;3.93;;;9.20;99.90;;;;;;6126248;23;20050;-86
2022/01/03 03:52:30;;;;;;;25.02;3.92;;;9.10;99.90;;;;;;6126311;23;20515;-86
2022/01/03 03:54:56;;;;;;;26.63;4.97;;;9.10;99.90;;;;;;6126190;23;20018;-86
2022/01/03 03:57:22;;;;;;;25.40;4.50;;;9.10;99.90;;;;;;6127755;23;20304;-86
2022/01/03 03:59:48;;;;;;;24.70;3.72;;;9.10;99.90;;;;;;6126033;23;20021;-87
2022/01/03 04:02:14;;;;;;;23.87;4.10;;;9.10;99.90;;;;;;6125802;23;20351;-87
2022/01/03 04:04:39;;;;;;;33.13;4.73;;;9.10;99.90;;;;;;6127523;23;20024;-87
2022/01/03 04:07:05;;;;;;;25.37;3.87;;;9.00;99.90;;;;;;6126123;23;20070;-87
2022/01/03 04:09:31;;;;;;;27.17;4.40;;;9.00;99.90;;;;;;6127669;23;20029;-87
2022/01/03 04:11:57;;;;;;;28.58;4.25;;;9.10;99.90;;;;;;6126086;23;20029;-87
2022/01/03 04:14:23;;;;;;;27.05;4.55;;;9.00;99.90;;;;;;6125835;23;20021;-86
2022/01/03 04:16:48;;;;;;;26.83;3.57;;;9.10;99.90;;;;;;6125977;23;20120;-86
2022/01/03 04:19:14;;;;;;;31.53;4.10;;;9.00;99.90;;;;;;6125821;23;20025;-87
2022/01/03 04:21:40;;;;;;;33.25;5.30;;;9.00;99.90;;;;;;6127634;23;20339;-86
2022/01/03 04:24:08;;;;;;;25.42;4.40;;;9.00;99.90;;;;;;6125799;23;20021;-86
2022/01/03 04:26:34;;;;;;;24.10;4.03;;;9.00;99.90;;;;;;6127519;23;20133;-85
2022/01/03 04:29:01;;;;;;;22.27;3.75;;;9.00;99.90;;;;;;6126212;23;20014;-85
2022/01/03 04:31:26;;;;;;;28.58;4.03;;;9.00;99.90;;;;;;6127512;23;20084;-87
2022/01/03 04:33:52;;;;;;;25.17;3.70;;;9.00;99.90;;;;;;6101351;23;20085;-86
2022/01/03 04:36:18;;;;;;;31.13;4.30;;;9.00;99.90;;;;;;6125529;23;20093;-86
2022/01/03 04:38:44;;;;;;;27.07;4.33;;;9.10;99.90;;;;;;6127435;23;20089;-86
2022/01/03 04:41:11;;;;;;;27.83;4.17;;;9.10;99.90;;;;;;6127541;23;20018;-86
2022/01/03 04:43:37;;;;;;;;;;;9.00;99.90;;;;;;6101662;23;20320;-89
2022/01/03 04:46:03;;;;;;;25.30;4.05;;;9.10;99.90;;;;;;6125642;23;19916;-86
2022/01/03 04:48:29;;;;;;;22.83;4.20;;;9.10;99.90;;;;;;6125754;23;20344;-87
2022/01/03 04:50:55;;;;;;;28.23;4.47;;;9.10;99.90;;;;;;6125548;23;20029;-87
2022/01/03 04:53:25;;;;;;;27.90;4.67;;;9.10;99.90;;;;;;6100869;23;20254;-87
2022/01/03 04:55:51;;;;;;;32.38;5.35;;;9.10;99.90;;;;;;6100909;23;20022;-86
2022/01/03 04:58:17;;;;;;;26.92;3.92;;;9.10;99.90;;;;;;6125565;23;20089;-88
2022/01/03 05:00:44;;;;;;;33.33;5.07;;;9.10;99.90;;;;;;6125715;23;20543;-87
2022/01/03 05:03:10;;;;;;;22.45;4.15;;;9.10;99.90;;;;;;6125428;23;20025;-88
2022/01/03 05:05:36;;;;;;;27.35;4.32;;;9.10;99.90;;;;;;6100431;23;20049;-87
2022/01/03 05:08:02;;;;;;;27.45;4.28;;;9.10;99.90;;;;;;6125497;23;20337;-89
2022/01/03 05:10:27;;;;;;;29.85;4.68;;;9.10;99.90;;;;;;6101078;23;20026;-88
2022/01/03 05:12:53;;;;;;;26.63;4.33;;;9.10;99.90;;;;;;6125534;23;20029;-88
2022/01/03 05:15:19;;;;;;;24.17;3.47;;;9.10;99.90;;;;;;6125600;23;20344;-93
2022/01/03 05:17:44;;;;;;;28.90;4.80;;;9.10;99.90;;;;;;6100905;23;20408;-88
2022/01/03 05:20:12;;;;;;;26.63;4.10;;;9.00;99.90;;;;;;6101219;23;20018;-87
2022/01/03 05:22:38;;;;;;;31.40;4.32;;;9.10;99.90;;;;;;6125125;23;20022;-85
2022/01/03 05:25:04;;;;;;;33.10;4.47;;;9.00;99.90;;;;;;6125371;23;20025;-86
2022/01/03 05:27:30;;;;;;;28.15;4.95;;;9.10;99.90;;;;;;6125321;23;20029;-85
2022/01/03 05:29:56;;;;;;;23.87;4.47;;;9.00;99.90;;;;;;6125124;23;20022;-86
2022/01/03 05:32:22;;;;;;;32.80;6.03;;;9.00;99.90;;;;;;6100743;23;20726;-87
2022/01/03 05:34:47;;;;;;;31.20;5.53;;;9.10;99.90;;;;;;6127321;23;20321;-86
2022/01/03 05:37:13;;;;;;;37.00;5.03;;;9.10;99.90;;;;;;6125426;23;20403;-87
2022/01/03 05:39:39;;;;;;;29.55;5.22;;;9.10;99.90;;;;;;6125427;23;20018;-87
2022/01/03 05:42:05;;;;;;;27.37;4.60;;;9.10;99.90;;;;;;6100670;23;20013;-86
2022/01/03 05:44:31;;;;;;;29.20;4.82;;;9.10;99.90;;;;;;6125104;23;20066;-87
2022/01/03 05:46:56;;;;;;;27.00;4.80;;;9.00;99.90;;;;;;6125210;23;20025;-86
2022/01/03 05:49:22;;;;;;;28.50;4.77;;;9.00;99.90;;;;;;6100885;23;20021;-87
2022/01/03 05:51:48;;;;;;;30.23;4.77;;;9.00;99.90;;;;;;6125330;23;20010;-85
2022/01/03 05:54:13;;;;;;;31.03;4.73;;;9.00;99.90;;;;;;6125256;23;20518;-88
2022/01/03 05:56:39;;;;;;;39.67;6.53;;;9.00;99.90;;;;;;6126509;23;20022;-86
2022/01/03 05:59:07;;;;;;;26.23;4.80;;;9.00;99.90;;;;;;6126868;23;20152;-87
2022/01/03 06:01:34;;;;;;;36.88;5.70;;;9.00;99.90;;;;;;6100526;23;20046;-88
2022/01/03 06:04:11;;;;;;;30.92;4.93;;;9.00;99.90;;;;;;6125014;23;20388;-88
2022/01/03 06:06:55;;;;;;;31.35;5.25;;;9.00;99.90;;;;;;6124650;23;20018;-86
2022/01/03 06:09:22;;;;;;;30.35;5.05;;;9.00;99.90;;;;;;6125292;23;20359;-86
2022/01/03 06:11:49;;;;;;;31.35;5.47;;;9.00;99.90;;;;;;6125075;23;20458;-86
2022/01/03 06:14:16;;;;;;;34.80;5.00;;;9.00;99.90;;;;;;6125090;23;20022;-86
2022/01/03 06:16:44;;;;;;;29.13;4.65;;;9.00;99.90;;;;;;6124955;23;20032;-86
2022/01/03 06:19:11;;;;;;;40.92;5.72;;;9.00;99.90;;;;;;6125387;23;20347;-91
2022/01/03 06:21:40;;;;;;;28.35;4.47;;;9.00;99.90;;;;;;6125532;23;20093;-86
2022/01/03 06:24:09;;;;;;;22.52;4.53;;;9.10;99.90;;;;;;6124974;23;20355;-91
2022/01/03 06:26:36;;;;;;;28.50;4.75;;;9.10;99.90;;;;;;6124019;23;20018;-87
2022/01/03 06:29:03;;;;;;;26.02;4.65;;;9.10;99.90;;;;;;6123648;23;20017;-87
2022/01/03 06:31:30;;;;;;;32.28;5.30;;;9.10;99.90;;;;;;6124699;23;20022;-86
2022/01/03 06:33:55;;;;;;;25.13;4.22;;;9.10;99.90;;;;;;6124740;23;20022;-87
2022/01/03 06:36:21;;;;;;;35.90;5.37;;;9.10;99.90;;;;;;6124456;23;20036;-84
2022/01/03 06:38:47;;;;;;;32.67;5.10;;;9.10;99.90;;;;;;6125702;23;20045;-87
2022/01/03 06:41:13;;;;;;;27.20;5.27;;;9.00;99.90;;;;;;6126631;23;20395;-85
2022/01/03 06:43:38;;;;;;;30.80;5.03;;;9.00;99.90;;;;;;6125059;23;20352;-85
2022/01/03 06:46:04;;;;;;;33.67;4.57;;;9.10;99.90;;;;;;6124712;23;20401;-85
2022/01/03 06:48:30;;;;;;;36.23;6.13;;;9.10;99.90;;;;;;6125164;23;20029;-86
2022/01/03 06:50:55;;;;;;;33.43;5.53;;;9.10;99.90;;;;;;6125159;23;20085;-84
2022/01/03 06:53:21;;;;;;;26.00;4.83;;;9.10;99.90;;;;;;6125376;23;20029;-90
2022/01/03 06:55:47;;;;;;;39.10;4.87;;;9.10;99.90;;;;;;6127490;23;20074;-87
2022/01/03 06:58:12;;;;;;;29.87;4.67;;;9.20;99.90;;;;;;6124970;23;20569;-85
2022/01/03 07:00:38;;;;;;;25.43;4.50;;;9.20;99.90;;;;;;6126476;23;20014;-86
2022/01/03 07:03:05;;;;;;;36.10;4.93;;;9.10;99.90;;;;;;6126340;23;20343;-87
2022/01/03 07:05:30;;;;;;;;;;;9.10;99.90;;;;;;6124931;23;20022;-87
2022/01/03 07:07:56;;;;;;;27.83;4.28;;;9.10;99.90;;;;;;6126656;23;20362;-87
2022/01/03 07:10:22;;;;;;;30.00;5.77;;;9.10;99.90;;;;;;6125089;23;20101;-86
2022/01/03 07:12:50;;;;;;;28.77;4.43;;;9.10;99.90;;;;;;6124969;23;20018;-87
2022/01/03 07:20:47;;;;;;;31.35;4.78;;;9.10;99.90;;;;;;6127622;23;20089;-87
2022/01/03 07:23:13;;;;;;;36.58;4.75;;;9.00;99.90;;;;;;6126679;23;20487;-87
2022/01/03 07:25:39;;;;;;;30.90;4.70;;;9.00;99.90;;;;;;6126855;23;20018;-87
2022/01/03 07:28:07;;;;;;;36.07;4.93;;;9.00;99.90;;;;;;6126469;23;20014;-85
2022/01/03 07:30:33;;;;;;;25.38;4.45;;;9.00;99.90;;;;;;6126827;23;20021;-89
2022/01/03 07:32:59;;;;;;;34.60;5.32;;;9.00;99.90;;;;;;6126893;23;20119;-86
2022/01/03 07:35:25;;;;;;;27.45;5.00;;;9.00;99.90;;;;;;6126339;23;20029;-87
2022/01/03 07:37:53;;;;;;;36.37;4.93;;;9.00;99.90;;;;;;6126254;23;20363;-88
2022/01/03 07:40:19;;;;;;;32.72;4.72;;;9.00;99.90;;;;;;6101926;23;20025;-86
2022/01/03 07:42:45;;;;;;;29.45;4.70;;;9.00;99.90;;;;;;6127879;23;20018;-87
2022/01/03 07:45:11;;;;;;;33.03;5.40;;;9.00;99.90;;;;;;6126282;23;20097;-87
2022/01/03 07:47:37;;;;;;;37.80;5.95;;;9.10;99.90;;;;;;6126230;23;20444;-85
2022/01/03 07:50:05;;;;;;;32.47;4.60;;;9.00;99.90;;;;;;6126153;23;20018;-86
2022/01/03 07:52:31;;;;;;;24.30;4.45;;;9.10;99.90;;;;;;6126829;23;20022;-92
2022/01/03 07:55:19;;;;;;;34.93;5.07;;;9.10;99.90;;;;;;6126533;23;20014;-88
2022/01/03 07:57:45;;;;;;;24.98;3.75;;;9.10;99.90;;;;;;6101960;23;20091;-85
2022/01/03 08:00:15;;;;;;;25.95;4.75;;;9.10;99.90;;;;;;6126605;23;20064;-89
2022/01/03 08:02:41;;;;;;;37.70;5.40;;;9.10;99.90;;;;;;6126055;23;20081;-86
2022/01/03 08:05:12;;;;;;;31.92;4.75;;;9.10;99.90;;;;;;6127568;23;20061;-88
2022/01/03 08:07:38;;;;;;;36.05;5.35;;;9.10;99.90;;;;;;6125911;23;20097;-89
2022/01/03 08:14:13;;;;;;;32.22;5.25;;;9.10;99.90;;;;;;6095637;23;20057;-87
2022/01/03 08:16:39;;;;;;;34.92;5.00;;;9.10;99.90;;;;;;6044910;23;20057;-88
2022/01/03 08:19:04;;;;;;;34.37;5.83;;;9.10;99.90;;;;;;6045845;23;20018;-88
2022/01/03 08:21:30;;;;;;;29.17;5.20;;;9.10;99.90;;;;;;6070590;23;20101;-90
2022/01/03 08:24:18;;;;;;;26.03;4.57;;;9.10;99.90;;;;;;6073130;23;20030;-89
2022/01/03 08:27:01;;;;;;;32.17;5.10;;;9.20;99.90;;;;;;6049122;23;20025;-89
2022/01/03 08:29:28;;;;;;;36.88;5.07;;;9.20;99.90;;;;;;6048481;23;20026;-89
2022/01/03 08:31:54;;;;;;;26.35;4.25;;;9.20;99.90;;;;;;6050919;23;20038;-86
2022/01/03 08:34:20;;;;;;;24.83;4.40;;;9.20;99.90;;;;;;6075064;23;20596;-93
2022/01/03 08:36:46;;;;;;;28.20;4.53;;;9.20;99.90;;;;;;6097265;23;20057;-84
2022/01/03 08:39:12;;;;;;;24.40;4.83;;;9.30;99.90;;;;;;6098451;23;20026;-89
2022/01/03 08:42:00;;;;;;;33.50;4.93;;;9.30;99.90;;;;;;6073084;23;20022;-87
2022/01/03 08:44:50;;;;;;;35.10;5.00;;;9.30;99.90;;;;;;6054749;23;20122;-94
2022/01/03 08:47:16;;;;;;;31.50;4.68;;;9.40;99.90;;;;;;6125802;23;20463;-87
2022/01/03 08:49:42;;;;;;;25.17;4.93;;;9.40;99.90;;;;;;6127341;23;20025;-92
2022/01/03 08:52:07;;;;;;;27.63;4.63;;;9.40;99.90;;;;;;6103768;23;20022;-86
2022/01/03 08:54:33;;;;;;;29.20;4.43;;;9.40;99.90;;;;;;6129906;23;20340;-90
2022/01/03 08:57:11;;;;;;;29.27;5.27;;;9.40;99.90;;;;;;6128434;23;20029;-88
2022/01/03 08:59:37;;;;;;;28.75;5.10;;;9.40;99.90;;;;;;6099169;23;20018;-88
2022/01/03 09:02:06;;;;;;;32.10;4.50;;;9.40;99.90;;;;;;6126230;23;20033;-85
2022/01/03 09:04:32;;;;;;;32.08;4.40;;;9.50;99.90;;;;;;6127107;23;20022;-90
2022/01/03 09:06:59;;;;;;;27.53;4.70;;;9.40;99.90;;;;;;6126151;23;20029;-90
2022/01/03 09:09:54;;;;;;;32.92;4.93;;;9.50;99.90;;;;;;6128293;23;20022;-88
2022/01/03 09:12:19;;;;;;;33.28;5.20;;;9.50;99.90;;;;;;6127600;23;20021;-93
2022/01/03 09:14:45;;;;;;;28.17;4.87;;;9.50;99.90;;;;;;6126660;23;20018;-88
2022/01/03 09:17:11;;;;;;;35.20;4.70;;;9.50;99.90;;;;;;6101289;23;20044;-91
2022/01/03 09:19:36;;;;;;;31.57;4.40;;;9.50;99.90;;;;;;6102310;23;20020;-85
2022/01/03 09:22:17;;;;;;;26.83;3.80;;;9.50;99.90;;;;;;6125913;23;20029;-85
2022/01/03 09:28:48;;;;;;;20.55;3.78;;;9.60;99.90;;;;;;6101775;23;20022;-91
2022/01/03 09:30:23;;;;;;;26.15;4.72;;;9.60;99.90;;;;;;6127050;23;20113;-89
2022/01/03 09:32:52;;;;;;;32.90;5.40;;;9.60;99.90;;;;;;6126647;23;20053;-94
2022/01/03 09:35:21;;;;;;;32.05;5.13;;;9.60;99.90;;;;;;6102362;23;20090;-86
2022/01/03 09:37:48;;;;;;;29.55;5.03;;;9.60;99.90;;;;;;6126948;23;20021;-85
2022/01/03 09:40:14;;;;;;;27.50;5.32;;;9.60;99.90;;;;;;6126054;23;20018;-85
2022/01/03 09:42:42;;;;;;;30.98;4.32;;;9.60;99.90;;;;;;6125312;23;20033;-86
2022/01/03 09:45:13;;;;;;;28.45;4.82;;;9.60;99.90;;;;;;6125337;23;20029;-89
2022/01/03 09:47:43;;;;;;;26.70;5.05;;;9.60;99.90;;;;;;6127213;23;20033;-85
2022/01/03 09:50:10;;;;;;;33.97;5.68;;;9.60;99.90;;;;;;6127142;23;20020;-89
2022/01/03 09:52:37;;;;;;;36.42;6.18;;;9.60;99.90;;;;;;6127570;23;20089;-87
2022/01/03 09:55:03;;;;;;;35.03;4.68;;;9.70;99.90;;;;;;6125528;23;20376;-88
2022/01/03 09:57:30;;;;;;;;;;;9.70;99.90;;;;;;6125872;23;20014;-87
2022/01/03 09:59:58;;;;;;;33.38;5.28;;;9.70;99.90;;;;;;6126604;23;19913;-85
2022/01/03 10:02:23;;;;;;;33.00;4.32;;;9.70;99.90;;;;;;6124859;23;20021;-87
2022/01/03 10:04:49;;;;;;;25.47;5.00;;;9.70;99.90;;;;;;6126748;23;20026;-89
2022/01/03 10:07:17;;;;;;;29.40;5.00;;;9.70;99.90;;;;;;6125389;23;20018;-87
2022/01/03 10:09:44;;;;;;;28.67;4.30;;;9.60;99.90;;;;;;6126506;23;20105;-93
2022/01/03 10:12:10;;;;;;;;;;;9.60;99.90;;;;;;6127261;23;20018;-85
2022/01/03 10:14:36;;;;;;;32.63;5.30;;;9.70;99.90;;;;;;6126589;23;20338;-89
2022/01/03 10:17:02;;;;;;;34.63;4.77;;;9.70;99.90;;;;;;6126759;23;20033;-85
2022/01/03 10:19:28;;;;;;;22.58;4.35;;;9.70;99.90;;;;;;6125058;23;20108;-85
2022/01/03 10:21:54;;;;;;;31.77;4.47;;;9.70;99.90;;;;;;6124817;23;20018;-89
2022/01/03 10:24:34;;;;;;;24.53;4.67;;;9.70;99.90;;;;;;6124523;23;20028;-87
2022/01/03 10:27:00;;;;;;;30.83;4.40;;;9.70;99.90;;;;;;6125029;23;20266;-87
2022/01/03 10:29:28;;;;;;;27.30;4.13;;;9.80;99.90;;;;;;6100437;23;20018;-86
2022/01/03 10:31:56;;;;;;;30.02;4.43;;;9.80;99.90;;;;;;6100401;23;20018;-88
2022/01/03 10:34:23;;;;;;;27.83;4.88;;;9.80;99.90;;;;;;6125156;23;20049;-86
2022/01/03 10:36:51;;;;;;;27.60;4.25;;;9.80;99.90;;;;;;6125489;23;20014;-85
2022/01/03 10:39:27;;;;;;;28.08;4.30;;;9.80;99.90;;;;;;6126874;23;20343;-84
2022/01/03 10:42:12;;;;;;;33.65;4.93;;;9.80;99.90;;;;;;6124878;23;20013;-89
2022/01/03 10:44:41;;;;;;;29.85;4.28;;;9.80;99.90;;;;;;6126328;23;20096;-88
2022/01/03 10:47:14;;;;;;;32.95;4.88;;;9.80;99.90;;;;;;6126353;23;20026;-84
2022/01/03 10:49:42;;;;;;;31.60;4.07;;;9.80;99.90;;;;;;6126562;23;20018;-89
2022/01/03 10:52:12;;;;;;;25.15;4.38;;;9.90;99.90;;;;;;6125267;23;20022;-85
2022/01/03 10:54:38;;;;;;;30.38;4.80;;;9.90;99.90;;;;;;6127191;23;20104;-85
2022/01/03 10:57:04;;;;;;;26.42;4.43;;;9.90;99.90;;;;;;6127007;23;20022;-85
2022/01/03 10:59:31;;;;;;;24.20;4.50;;;9.90;99.90;;;;;;6127069;23;20053;-85
2022/01/03 11:02:02;;;;;;;28.45;4.60;;;10.00;99.90;;;;;;6102275;23;20253;-87
2022/01/03 11:04:52;;;;;;;24.98;4.25;;;10.00;99.90;;;;;;6128379;23;20360;-86
2022/01/03 11:13:07;;;;;;;;;;;10.00;99.90;;;;;;6127344;23;20029;-86
2022/01/03 11:15:33;;;;;;;23.15;4.05;;;10.00;99.90;;;;;;6126775;23;19916;-85
2022/01/03 11:18:09;;;;;;;24.58;4.15;;;10.00;99.90;;;;;;6127486;23;20102;-86
2022/01/03 11:20:35;;;;;;;30.60;4.57;;;10.00;99.90;;;;;;6126835;23;20022;-83
2022/01/03 11:23:01;;;;;;;24.10;3.73;;;10.00;99.90;;;;;;6126627;23;20025;-86
2022/01/03 11:25:33;;;;;;;25.07;5.20;;;10.00;99.90;;;;;;6128311;23;20347;-86
2022/01/03 11:28:03;;;;;;;27.15;4.72;;;10.10;99.90;;;;;;6102365;23;20022;-87
2022/01/03 11:30:29;;;;;;;27.67;3.92;;;10.10;99.90;;;;;;6126623;23;20543;-85
2022/01/03 11:32:56;;;;;;;24.42;4.43;;;10.10;99.90;;;;;;6102042;23;20093;-88
2022/01/03 11:35:22;;;;;;;28.27;4.68;;;10.10;99.90;;;;;;6102440;23;20036;-87
2022/01/03 11:37:50;;;;;;;27.75;4.50;;;10.10;99.90;;;;;;6126548;23;20317;-87
2022/01/03 11:40:17;;;;;;;30.20;4.82;;;10.10;99.90;;;;;;6126414;23;20021;-88
2022/01/03 11:42:44;;;;;;;24.70;3.97;;;10.10;99.90;;;;;;6126845;23;20021;-85
2022/01/03 11:45:11;;;;;;;23.70;4.00;;;10.20;99.90;;;;;;6126423;23;20329;-87
2022/01/03 11:47:37;;;;;;;30.23;3.58;;;10.20;99.90;;;;;;6126222;23;20018;-83
2022/01/03 11:50:06;;;;;;;27.35;4.18;;;10.10;99.90;;;;;;6127963;23;20194;-85
2022/01/03 11:52:43;;;;;;;27.30;4.07;;;10.10;99.90;;;;;;6102160;23;20026;-86
2022/01/03 11:55:12;;;;;;;24.70;4.85;;;10.20;99.90;;;;;;6128400;23;20025;-88
2022/01/03 12:06:04;;;;;;;20.00;3.65;;;10.20;99.90;;;;;;6126732;23;20088;-87
2022/01/03 12:08:33;;;;;;;24.00;4.53;;;10.20;99.90;;;;;;6129104;23;20022;-86
2022/01/03 12:11:16;;;;;;;27.50;3.92;;;10.20;99.90;;;;;;6127367;23;20081;-87
2022/01/03 12:13:49;;;;;;;31.55;4.68;;;10.20;99.90;;;;;;6128748;23;20045;-86
2022/01/03 12:16:15;;;;;;;23.90;3.88;;;10.20;99.90;;;;;;6128763;23;20097;-90
2022/01/03 12:19:00;;;;;;;27.80;4.72;;;10.20;99.90;;;;;;6127527;23;20343;-87
2022/01/03 12:21:47;;;;;;;22.77;3.58;;;10.20;99.90;;;;;;6126235;23;20899;-85
2022/01/03 12:24:41;;;;;;;23.27;4.07;;;10.20;99.90;;;;;;6115433;23;20050;-87
2022/01/03 12:27:10;;;;;;;24.83;3.58;;;10.20;99.90;;;;;;6127318;23;20014;-88
2022/01/03 12:29:53;;;;;;;27.50;4.13;;;10.30;99.90;;;;;;6127424;23;20018;-86
2022/01/03 12:32:42;;;;;;;26.98;4.28;;;10.20;99.90;;;;;;6125899;23;20022;-86
2022/01/03 12:38:02;;;;;;;28.77;3.93;;;10.20;99.90;;;;;;6125567;23;20075;-90
2022/01/03 12:40:34;;;;;;;24.65;4.13;;;10.20;99.90;;;;;;6088636;23;20025;-88
2022/01/03 12:43:06;;;;;;;26.75;3.92;;;10.10;99.90;;;;;;6101339;23;20097;-88
2022/01/03 12:45:32;;;;;;;27.00;4.10;;;10.10;99.90;;;;;;6127256;23;20022;-89
2022/01/03 12:48:15;;;;;;;26.83;3.93;;;10.10;99.90;;;;;;6126175;23;20053;-86
2022/01/03 12:50:41;;;;;;;27.33;4.80;;;10.20;99.90;;;;;;6128651;23;20093;-86
2022/01/03 12:53:10;;;;;;;27.75;4.18;;;10.10;99.90;;;;;;6101825;23;20109;-91
2022/01/03 12:55:39;;;;;;;23.00;4.38;;;10.20;99.90;;;;;;6127529;23;20018;-88
2022/01/03 12:58:13;;;;;;;21.55;4.10;;;10.20;99.90;;;;;;6127017;23;20054;-89
2022/01/03 13:00:51;;;;;;;30.52;4.20;;;10.20;99.90;;;;;;6130177;23;20041;-89
2022/01/03 13:03:23;;;;;;;27.40;4.30;;;10.20;99.90;;;;;;6129242;23;20028;-87
2022/01/03 13:06:13;;;;;;;28.38;4.50;;;10.20;99.90;;;;;;6105009;23;20022;-87
2022/01/03 13:08:52;;;;;;;26.35;4.18;;;10.20;99.90;;;;;;6104109;23;20022;-88
2022/01/03 13:11:30;;;;;;;33.90;5.20;;;10.20;99.90;;;;;;6103732;23;20096;-88
2022/01/03 13:14:05;;;;;;;28.65;3.92;;;10.30;99.90;;;;;;6128578;23;20067;-90
2022/01/03 13:16:59;;;;;;;34.80;4.65;;;10.30;99.90;;;;;;6129191;23;20025;-94
2022/01/03 13:19:30;;;;;;;25.60;4.03;;;10.30;99.90;;;;;;6094343;23;20026;-88
2022/01/03 13:22:04;;;;;;;26.02;3.90;;;10.30;99.90;;;;;;6104820;23;20432;-86
2022/01/03 13:24:35;;;;;;;30.15;4.47;;;10.30;99.90;;;;;;6129168;23;20050;-87
2022/01/03 13:27:16;;;;;;;27.80;4.35;;;10.30;99.90;;;;;;6129174;23;20081;-88
2022/01/03 13:29:43;;;;;;;23.65;3.70;;;10.30;99.90;;;;;;6134193;23;20018;-86
2022/01/03 13:32:13;;;;;;;29.02;4.18;;;10.30;99.90;;;;;;6132170;23;20092;-87